Terminal Aerodrome Forecast
Issued by NWS Wilmington, OH

Current Version | Previous Version | Graphics & Text | Print | Product List | Glossary On
Versions: 1 2 3 4 5 6 7 8 9 10 11 12 13 14 15 16 17 18 19 20
000
FTUS41 KILN 191300 AAA
TAFILN
TAF AMD
KILN 191308Z 1913/2012 21003KT 1/4SM FG BKN001
     FM191400 22005KT 1SM BR SCT006
     FM191500 23005KT 4SM HZ SCT040
     FM191700 23008KT P6SM BKN040
     FM200300 23007KT P6SM VCTS BKN040CB
     FM200900 21005KT 4SM BR BKN040=

USA.gov is the U.S. government's official web portal to all federal, state and local government web resources and services.